createdAt,value
2024-01-05T00:01:27.882Z,0.60
2024-01-05T00:04:30.924Z,0.90
2024-01-05T00:07:33.961Z,0.90
2024-01-05T00:10:36.953Z,0.60
2024-01-05T00:13:39.926Z,0.90
2024-01-05T00:16:43.372Z,0.60
2024-01-05T00:19:46.831Z,0.45
2024-01-05T00:22:49.863Z,0.73
2024-01-05T00:25:52.949Z,0.80
2024-01-05T00:28:55.946Z,0.60
2024-01-05T00:31:58.961Z,0.60
2024-01-05T00:35:01.948Z,0.70
2024-01-05T00:38:05.729Z,0.77
2024-01-05T00:41:08.728Z,0.80
2024-01-05T00:44:11.739Z,0.70
2024-01-05T00:47:14.760Z,0.80
2024-01-05T00:50:17.755Z,0.50
2024-01-05T00:53:20.756Z,0.70
2024-01-05T00:56:23.755Z,0.70
2024-01-05T00:59:26.840Z,0.60
2024-01-05T01:02:30.228Z,0.50
2024-01-05T01:05:33.370Z,0.85
2024-01-05T01:08:36.372Z,0.70
2024-01-05T01:11:39.387Z,0.70
2024-01-05T01:14:42.411Z,0.80
2024-01-05T01:17:45.723Z,0.90
2024-01-05T01:20:49.007Z,0.68
2024-01-05T01:23:52.998Z,0.70
2024-01-05T01:26:56.059Z,0.70
2024-01-05T01:29:59.157Z,0.70
2024-01-05T01:33:02.296Z,0.87
2024-01-05T01:36:05.759Z,0.73
2024-01-05T01:39:08.865Z,0.73
2024-01-05T01:42:12.112Z,0.90
2024-01-05T01:45:15.812Z,1.00
2024-01-05T01:48:19.436Z,0.80
2024-01-05T01:51:23.155Z,0.82
2024-01-05T01:54:29.203Z,0.90
2024-01-05T01:57:33.254Z,0.90
2024-01-05T02:00:36.495Z,0.82
2024-01-05T02:03:39.965Z,0.70
2024-01-05T02:06:46.475Z,0.70
2024-01-05T02:09:49.503Z,0.70
2024-01-05T02:12:52.750Z,0.63
2024-01-05T02:15:55.963Z,0.63
2024-01-05T02:18:59.061Z,0.90
2024-01-05T02:22:02.704Z,0.80
2024-01-05T02:25:06.083Z,0.63
2024-01-05T02:28:09.066Z,0.60
2024-01-05T02:31:12.181Z,0.57
2024-01-05T02:34:15.258Z,0.70
2024-01-05T02:37:18.312Z,0.70
2024-01-05T02:40:21.439Z,0.50
2024-01-05T02:43:24.447Z,0.77
2024-01-05T02:46:27.489Z,0.90
2024-01-05T02:49:30.650Z,0.50
2024-01-05T02:52:33.721Z,0.88
2024-01-05T02:55:36.711Z,1.08
2024-01-05T02:58:40.726Z,0.85
2024-01-05T03:01:43.827Z,0.80
2024-01-05T03:04:47.264Z,0.70
2024-01-05T03:07:50.292Z,0.70
2024-01-05T03:10:53.274Z,0.70
2024-01-05T03:13:56.274Z,0.63
2024-01-05T03:16:59.238Z,0.70
2024-01-05T03:20:02.378Z,0.50
2024-01-05T03:23:05.414Z,0.80
2024-01-05T03:26:11.471Z,1.00
2024-01-05T03:29:14.513Z,0.50
2024-01-05T03:32:17.557Z,0.70
2024-01-05T03:35:21.012Z,0.50
2024-01-05T03:38:24.064Z,0.50
2024-01-05T03:41:27.145Z,1.00
2024-01-05T03:44:30.222Z,0.73
2024-01-05T03:47:33.268Z,0.70
2024-01-05T03:50:36.429Z,0.77
2024-01-05T03:53:39.518Z,0.80
2024-01-05T03:56:47.567Z,0.60
2024-01-05T03:59:53.633Z,0.80
2024-01-05T04:02:56.842Z,0.60
2024-01-05T04:06:01.120Z,1.00
2024-01-05T04:09:05.082Z,1.20
2024-01-05T04:12:08.369Z,0.60
2024-01-05T04:15:11.379Z,1.00
2024-01-05T04:18:14.538Z,0.65
2024-01-05T04:21:17.745Z,0.80
2024-01-05T04:24:20.979Z,0.82
2024-01-05T04:27:24.090Z,0.80
2024-01-05T04:30:27.214Z,0.70
2024-01-05T04:33:30.699Z,0.88
2024-01-05T04:36:33.969Z,0.57
2024-01-05T04:39:37.067Z,1.00
2024-01-05T04:42:40.192Z,0.90
2024-01-05T04:45:43.307Z,0.80
2024-01-05T04:48:46.635Z,0.73
2024-01-05T04:51:49.973Z,0.83
2024-01-05T04:54:53.146Z,0.65
2024-01-05T04:57:56.175Z,1.00
2024-01-05T05:00:59.284Z,0.70
2024-01-05T05:04:02.468Z,1.20
2024-01-05T05:07:05.618Z,0.93
2024-01-05T05:10:09.223Z,1.42
2024-01-05T05:13:12.351Z,2.33
2024-01-05T05:16:15.547Z,1.55
2024-01-05T05:19:18.767Z,1.30
2024-01-05T05:22:22.888Z,1.40
2024-01-05T05:25:26.276Z,1.40
2024-01-05T05:28:29.295Z,1.83
2024-01-05T05:31:32.379Z,0.93
2024-01-05T05:34:35.542Z,0.90
2024-01-05T05:37:38.576Z,1.00
2024-01-05T05:40:41.636Z,2.35
2024-01-05T05:43:46.805Z,2.30
2024-01-05T05:46:49.791Z,1.52
2024-01-05T05:49:52.821Z,1.20
2024-01-05T05:52:55.993Z,1.50
2024-01-05T05:55:58.980Z,1.40
2024-01-05T05:59:01.930Z,1.35
2024-01-05T06:02:05.050Z,1.60
2024-01-05T06:05:08.328Z,1.35
2024-01-05T06:08:11.366Z,1.20
2024-01-05T06:11:16.046Z,1.45
2024-01-05T06:14:19.044Z,1.48
2024-01-05T06:17:22.017Z,1.40
2024-01-05T06:20:25.044Z,1.55
2024-01-05T06:23:28.090Z,1.70
2024-01-05T06:26:32.326Z,1.40
2024-01-05T06:29:35.399Z,1.88
2024-01-05T06:32:39.404Z,1.45
2024-01-05T06:35:42.498Z,1.60
2024-01-05T06:38:45.517Z,1.30
2024-01-05T06:41:48.549Z,1.50
2024-01-05T06:44:51.661Z,1.73
2024-01-05T06:47:54.802Z,1.60
2024-01-05T06:50:58.015Z,1.42
2024-01-05T06:54:01.058Z,2.10
2024-01-05T06:57:04.483Z,1.98
2024-01-05T07:00:10.760Z,2.10
2024-01-05T07:03:14.014Z,7.22
2024-01-05T07:06:17.482Z,3.15
2024-01-05T07:09:20.542Z,3.70
2024-01-05T07:12:24.088Z,3.38
2024-01-05T07:15:27.070Z,2.83
2024-01-05T07:18:30.191Z,4.40
2024-01-05T07:21:35.465Z,5.53
2024-01-05T07:24:39.718Z,4.83
2024-01-05T07:27:42.773Z,5.50
2024-01-05T07:30:45.909Z,4.38
2024-01-05T07:33:48.991Z,4.45
2024-01-05T07:36:52.060Z,4.88
2024-01-05T07:39:55.170Z,4.20
2024-01-05T07:42:58.588Z,13.35
2024-01-05T07:46:04.512Z,12.45
2024-01-05T07:49:07.639Z,10.77
2024-01-05T07:52:10.909Z,11.57
2024-01-05T07:55:13.991Z,10.00
2024-01-05T07:58:17.463Z,12.18
2024-01-05T08:01:21.185Z,12.27
2024-01-05T08:04:24.488Z,9.38
2024-01-05T08:07:27.622Z,7.70
2024-01-05T08:10:31.533Z,7.07
2024-01-05T08:13:34.537Z,5.10
2024-01-05T08:16:37.860Z,5.97
2024-01-05T08:19:41.055Z,6.28
2024-01-05T08:22:44.108Z,3.90
2024-01-05T08:25:48.240Z,2.63
2024-01-05T08:28:51.221Z,2.60
2024-01-05T08:31:54.794Z,2.40
2024-01-05T08:34:57.789Z,3.22
2024-01-05T08:38:00.770Z,3.40
2024-01-05T08:41:03.757Z,3.80
2024-01-05T08:44:06.859Z,3.55
2024-01-05T08:47:09.920Z,3.85
2024-01-05T08:50:13.413Z,4.30
2024-01-05T08:53:16.593Z,4.13
2024-01-05T08:56:19.576Z,3.83
2024-01-05T08:59:22.588Z,4.30
2024-01-05T09:02:25.589Z,3.65
2024-01-05T09:05:28.800Z,3.80
2024-01-05T09:08:31.834Z,3.05
2024-01-05T09:11:34.848Z,3.80
2024-01-05T09:14:38.367Z,3.50
2024-01-05T09:17:41.649Z,3.42
2024-01-05T09:20:44.713Z,3.38
2024-01-05T09:23:47.697Z,3.42
2024-01-05T09:26:50.682Z,3.50
2024-01-05T09:29:53.711Z,3.80
2024-01-05T09:32:59.009Z,3.97
2024-01-05T09:36:02.104Z,4.72
2024-01-05T09:39:05.119Z,4.07
2024-01-05T09:42:08.475Z,4.10
2024-01-05T09:45:12.590Z,4.28
2024-01-05T09:48:15.731Z,4.72
2024-01-05T09:51:19.512Z,3.90
2024-01-05T09:54:22.550Z,4.78
2024-01-05T09:57:25.519Z,4.57
2024-01-05T10:00:29.824Z,4.60
2024-01-05T10:03:34.326Z,5.10
2024-01-05T10:06:37.373Z,5.28
2024-01-05T10:09:53.425Z,5.55
2024-01-05T10:13:00.304Z,5.00
2024-01-05T10:16:04.200Z,4.63
2024-01-05T10:19:17.425Z,5.20
2024-01-05T10:22:20.509Z,4.20
2024-01-05T10:25:23.724Z,3.97
2024-01-05T10:28:32.737Z,4.00
2024-01-05T10:31:35.858Z,3.60
2024-01-05T10:34:40.217Z,3.50
2024-01-05T10:37:43.231Z,3.38
2024-01-05T10:40:46.350Z,4.07
2024-01-05T10:43:49.514Z,4.17
2024-01-05T10:46:53.215Z,3.63
2024-01-05T10:49:57.777Z,3.58
2024-01-05T10:53:02.529Z,3.67
2024-01-05T10:56:07.313Z,3.80
2024-01-05T10:59:11.694Z,3.77
2024-01-05T11:02:31.057Z,2.80
2024-01-05T11:05:34.092Z,3.03
2024-01-05T11:08:58.013Z,3.13
2024-01-05T11:12:24.223Z,3.40
2024-01-05T11:15:33.086Z,2.90
2024-01-05T11:18:55.699Z,3.05
2024-01-05T11:22:09.484Z,3.65
2024-01-05T11:25:12.840Z,2.95
2024-01-05T11:28:39.888Z,3.17
2024-01-05T11:31:48.947Z,3.10
2024-01-05T11:34:52.334Z,3.03
2024-01-05T11:37:55.374Z,3.63
2024-01-05T11:40:58.443Z,3.22
2024-01-05T11:44:01.432Z,2.92
2024-01-05T11:47:04.604Z,2.83
2024-01-05T11:50:33.136Z,2.67
2024-01-05T11:53:36.474Z,2.55
2024-01-05T11:56:39.810Z,3.10
2024-01-05T11:59:42.810Z,3.15
2024-01-05T12:02:45.804Z,2.53
2024-01-05T12:05:52.782Z,3.33
2024-01-05T12:08:55.815Z,2.78
2024-01-05T12:12:17.684Z,2.63
2024-01-05T12:15:21.893Z,2.45
2024-01-05T12:18:34.542Z,3.10
2024-01-05T12:21:41.241Z,2.78
2024-01-05T12:24:45.379Z,2.88
2024-01-05T12:27:49.142Z,2.60
2024-01-05T12:30:52.305Z,2.65
2024-01-05T12:33:55.635Z,2.20
2024-01-05T12:37:08.916Z,2.38
2024-01-05T12:40:12.889Z,2.20
2024-01-05T12:43:17.731Z,2.53
2024-01-05T12:46:21.342Z,2.65
2024-01-05T12:49:26.208Z,3.03
2024-01-05T12:52:39.070Z,2.58
2024-01-05T12:55:42.158Z,2.85
2024-01-05T12:58:47.518Z,2.78
2024-01-05T13:02:00.281Z,2.97
2024-01-05T13:05:23.345Z,2.70
2024-01-05T13:08:26.311Z,3.15
2024-01-05T13:11:29.492Z,2.40
2024-01-05T13:14:32.513Z,3.83
2024-01-05T13:17:35.584Z,2.78
2024-01-05T13:20:38.594Z,3.30
2024-01-05T13:23:43.934Z,2.90
2024-01-05T13:26:47.124Z,3.40
2024-01-05T13:29:51.759Z,3.20
2024-01-05T13:32:55.576Z,3.58
2024-01-05T13:35:58.673Z,3.40
2024-01-05T13:39:02.217Z,3.10
2024-01-05T13:42:05.513Z,3.17
2024-01-05T13:45:09.629Z,3.55
2024-01-05T13:48:12.792Z,4.20
2024-01-05T13:51:15.939Z,4.33
2024-01-05T13:54:19.412Z,3.97
2024-01-05T13:57:24.023Z,4.72
2024-01-05T14:00:27.149Z,5.07
2024-01-05T14:03:30.938Z,5.18
2024-01-05T14:06:34.021Z,5.00
2024-01-05T14:09:37.095Z,5.22
2024-01-05T14:12:40.240Z,5.60
2024-01-05T14:15:43.391Z,4.90
2024-01-05T14:18:46.469Z,5.45
2024-01-05T14:21:49.551Z,5.73
2024-01-05T14:24:52.619Z,5.63
2024-01-05T14:27:55.776Z,6.40
2024-01-05T14:30:58.812Z,5.75
2024-01-05T14:34:02.057Z,6.03
2024-01-05T14:37:05.231Z,6.73
2024-01-05T14:40:12.439Z,6.50
2024-01-05T14:43:15.471Z,7.25
2024-01-05T14:46:18.488Z,7.25
2024-01-05T14:49:21.831Z,8.18
2024-01-05T14:52:25.037Z,8.57
2024-01-05T14:55:28.232Z,7.63
2024-01-05T14:58:31.369Z,8.90
2024-01-05T15:01:34.424Z,8.30
2024-01-05T15:04:37.512Z,7.45
2024-01-05T15:07:40.643Z,8.50
2024-01-05T15:10:44.697Z,8.20
2024-01-05T15:13:48.044Z,7.97
2024-01-05T15:16:51.610Z,7.30
2024-01-05T15:19:54.893Z,7.65
2024-01-05T15:22:57.954Z,8.17
2024-01-05T15:26:01.513Z,7.70
2024-01-05T15:29:04.507Z,9.18
2024-01-05T15:32:07.542Z,9.05
2024-01-05T15:35:10.850Z,10.88
2024-01-05T15:38:13.894Z,9.93
2024-01-05T15:41:16.872Z,8.68
2024-01-05T15:44:19.910Z,9.05
2024-01-05T15:47:22.909Z,9.88
2024-01-05T15:50:25.969Z,9.55
2024-01-05T15:53:29.017Z,10.13
2024-01-05T15:56:33.829Z,10.48
2024-01-05T15:59:36.928Z,11.45
2024-01-05T16:02:40.066Z,11.27
2024-01-05T16:05:43.161Z,10.30
2024-01-05T16:08:46.166Z,11.50
2024-01-05T16:11:49.133Z,14.98
2024-01-05T16:14:52.102Z,12.80
2024-01-05T16:17:55.145Z,16.20
2024-01-05T16:20:58.182Z,15.50
2024-01-05T16:24:03.152Z,23.77
2024-01-05T16:27:06.406Z,21.65
2024-01-05T16:30:10.118Z,27.05
2024-01-05T16:33:13.357Z,24.80
2024-01-05T16:36:21.800Z,19.60
2024-01-05T16:39:24.884Z,20.17
2024-01-05T16:42:29.810Z,25.52
2024-01-05T16:45:32.952Z,25.52
2024-01-05T16:48:36.529Z,31.52
2024-01-05T16:51:40.099Z,32.17
2024-01-05T16:54:43.204Z,28.70
2024-01-05T16:57:47.254Z,27.45
2024-01-05T17:00:50.457Z,25.95
2024-01-05T17:03:57.920Z,25.20
2024-01-05T17:07:01.707Z,24.10
2024-01-05T17:10:05.052Z,26.27
2024-01-05T17:13:08.128Z,23.92
2024-01-05T17:16:11.485Z,24.10
2024-01-05T17:19:14.803Z,28.67
2024-01-05T17:22:17.924Z,26.15
2024-01-05T17:25:20.934Z,30.10
2024-01-05T17:28:24.007Z,34.13
2024-01-05T17:31:27.132Z,35.53
2024-01-05T17:34:30.206Z,24.15
2024-01-05T17:37:33.164Z,21.42
2024-01-05T17:40:36.117Z,21.23
2024-01-05T17:43:42.185Z,25.85
2024-01-05T17:46:45.678Z,52.60
2024-01-05T17:49:48.982Z,26.83
2024-01-05T17:52:54.793Z,18.52
2024-01-05T17:55:58.391Z,20.60
2024-01-05T17:59:04.420Z,17.15
2024-01-05T18:02:07.811Z,21.30
2024-01-05T18:05:11.133Z,24.48
2024-01-05T18:08:14.180Z,26.20
2024-01-05T18:11:26.720Z,27.83
2024-01-05T18:14:29.796Z,19.10
2024-01-05T18:17:32.902Z,23.95
2024-01-05T18:20:35.955Z,21.38
2024-01-05T18:23:38.960Z,18.25
2024-01-05T18:26:42.000Z,16.03
2024-01-05T18:29:45.005Z,15.00
2024-01-05T18:32:48.126Z,15.93
2024-01-05T18:35:51.184Z,13.80
2024-01-05T18:38:54.234Z,15.98
2024-01-05T18:41:57.257Z,15.23
2024-01-05T18:45:00.380Z,14.73
2024-01-05T18:48:03.723Z,16.77
2024-01-05T18:51:06.986Z,12.77
2024-01-05T18:54:10.252Z,13.63
2024-01-05T18:57:14.918Z,13.10
2024-01-05T19:00:18.205Z,14.10
2024-01-05T19:03:21.788Z,14.77
2024-01-05T19:06:25.320Z,12.27
2024-01-05T19:09:28.347Z,13.20
2024-01-05T19:12:31.392Z,12.10
2024-01-05T19:15:34.996Z,12.05
2024-01-05T19:18:38.274Z,11.77
2024-01-05T19:21:49.846Z,12.73
2024-01-05T19:24:58.981Z,11.20
2024-01-05T19:28:01.968Z,11.60
2024-01-05T19:31:05.590Z,11.85
2024-01-05T19:34:10.110Z,11.95
2024-01-05T19:37:13.157Z,11.85
2024-01-05T19:40:16.198Z,12.20
2024-01-05T19:43:19.271Z,12.33
2024-01-05T19:46:23.580Z,23.48
2024-01-05T19:49:27.995Z,25.13
2024-01-05T19:52:31.072Z,29.02
2024-01-05T19:55:34.131Z,29.65
2024-01-05T19:58:37.228Z,27.67
2024-01-05T20:01:46.297Z,32.60
2024-01-05T20:04:51.003Z,33.90
2024-01-05T20:07:59.538Z,33.60
2024-01-05T20:11:02.642Z,38.63
2024-01-05T20:14:06.039Z,44.23
2024-01-05T20:17:09.256Z,49.88
2024-01-05T20:20:12.620Z,42.40
2024-01-05T20:23:15.871Z,35.03
2024-01-05T20:26:19.874Z,21.48
2024-01-05T20:29:22.870Z,26.47
2024-01-05T20:32:27.160Z,32.15
2024-01-05T20:35:30.229Z,40.35
2024-01-05T20:38:33.300Z,34.70
2024-01-05T20:41:36.891Z,30.08
2024-01-05T20:44:40.853Z,28.20
2024-01-05T20:47:43.910Z,24.25
2024-01-05T20:50:46.922Z,28.80
2024-01-05T20:53:49.928Z,35.63
2024-01-05T20:56:53.014Z,29.83
2024-01-05T20:59:56.009Z,34.23
2024-01-05T21:02:59.090Z,35.53
2024-01-05T21:06:02.800Z,32.42
2024-01-05T21:09:05.959Z,33.90
2024-01-05T21:12:09.085Z,38.13
2024-01-05T21:15:12.169Z,35.60
2024-01-05T21:18:15.498Z,35.85
2024-01-05T21:21:22.036Z,31.42
2024-01-05T21:24:25.481Z,31.70
2024-01-05T21:27:29.592Z,30.05
2024-01-05T21:30:32.740Z,26.30
2024-01-05T21:33:36.929Z,27.17
2024-01-05T21:36:42.197Z,28.77
2024-01-05T21:39:45.330Z,30.88
2024-01-05T21:42:48.450Z,28.83
2024-01-05T21:45:51.684Z,23.97
2024-01-05T21:48:55.137Z,24.42
2024-01-05T21:51:59.019Z,24.88
2024-01-05T21:55:02.144Z,26.58
2024-01-05T21:58:05.289Z,27.60
2024-01-05T22:01:08.673Z,28.07
2024-01-05T22:04:11.943Z,27.98
2024-01-05T22:07:15.199Z,30.23
2024-01-05T22:10:18.240Z,32.22
2024-01-05T22:13:21.750Z,30.42
2024-01-05T22:16:24.796Z,23.73
2024-01-05T22:19:28.300Z,21.88
2024-01-05T22:22:31.394Z,22.60
2024-01-05T22:25:34.653Z,22.63
2024-01-05T22:28:40.781Z,20.08
2024-01-05T22:31:45.135Z,15.67
2024-01-05T22:34:48.303Z,17.13
2024-01-05T22:37:51.394Z,19.40
2024-01-05T22:40:54.442Z,17.90
2024-01-05T22:43:57.688Z,17.88
2024-01-05T22:47:05.697Z,18.67
2024-01-05T22:50:09.756Z,18.17
2024-01-05T22:53:12.848Z,21.50
2024-01-05T22:56:15.869Z,22.75
2024-01-05T22:59:18.927Z,21.48
2024-01-05T23:02:21.939Z,20.97
2024-01-05T23:05:24.958Z,20.40
2024-01-05T23:08:28.110Z,18.95
2024-01-05T23:11:31.624Z,19.30
2024-01-05T23:14:34.917Z,18.05
2024-01-05T23:17:38.245Z,16.90
2024-01-05T23:20:41.408Z,15.98
2024-01-05T23:23:44.638Z,15.40
2024-01-05T23:26:47.937Z,16.52
2024-01-05T23:29:51.070Z,16.33
2024-01-05T23:32:54.318Z,15.37
2024-01-05T23:35:57.475Z,16.35
2024-01-05T23:39:00.681Z,16.77
2024-01-05T23:42:05.438Z,16.83
2024-01-05T23:45:09.297Z,17.30
2024-01-05T23:48:12.730Z,16.23
2024-01-05T23:51:16.587Z,16.63
2024-01-05T23:54:19.883Z,16.45
2024-01-05T23:57:23.343Z,15.23
